Time;durP1;ratioP1;P1;durP2;ratioP2;P2;SDS_P1;SDS_P2;PMS_P1;PMS_P2;Temp;Humidity;BMP_temperature;BMP_pressure;BME280_temperature;BME280_humidity;BME280_pressure;Samples;Min_cycle;Max_cycle;Signal;HPM_P1;HPM_P2
2023/04/16 00:01:51;;;;;;;;;;;8.10;99.90;;;;;;4960964;28;19926;-86
2023/04/16 00:04:17;;;;;;;;;;;8.00;99.90;;;;;;4976592;28;19930;-86
2023/04/16 00:06:43;;;;;;;;;;;8.00;99.90;;;;;;4976956;28;20029;-86
2023/04/16 00:09:08;;;;;;;;;;;8.00;99.90;;;;;;4959765;28;20071;-86
2023/04/16 00:11:34;;;;;;;;;;;8.10;99.90;;;;;;4976930;28;20378;-87
2023/04/16 00:14:00;;;;;;;;;;;8.10;99.90;;;;;;4976853;28;19934;-86
2023/04/16 00:16:26;;;;;;;;;;;8.00;99.90;;;;;;4959918;28;19972;-88
2023/04/16 00:18:51;;;;;;;;;;;8.00;99.90;;;;;;4960056;28;20023;-87
2023/04/16 00:21:17;;;;;;;;;;;8.10;99.90;;;;;;4975893;28;19927;-86
2023/04/16 00:23:43;;;;;;;;;;;8.10;99.90;;;;;;4959620;28;19932;-85
2023/04/16 00:26:08;;;;;;;;;;;8.00;99.90;;;;;;4959749;28;20351;-86
2023/04/16 00:28:34;;;;;;;;;;;8.00;99.90;;;;;;4976318;28;19930;-85
2023/04/16 00:31:00;;;;;;;;;;;8.00;99.90;;;;;;4959604;28;19930;-87
2023/04/16 00:33:25;;;;;;;;;;;8.10;99.90;;;;;;4975642;28;19926;-86
2023/04/16 00:35:51;;;;;;;;;;;8.00;99.90;;;;;;4976562;28;19930;-86
2023/04/16 00:38:16;;;;;;;;;;;8.00;99.90;;;;;;4975454;28;19926;-86
2023/04/16 00:40:42;;;;;;;;;;;8.00;99.90;;;;;;4975619;28;20358;-86
2023/04/16 00:43:08;;;;;;;;;;;7.90;99.90;;;;;;4975450;28;20013;-86
2023/04/16 00:45:33;;;;;;;;;;;7.90;99.90;;;;;;4959506;28;19933;-85
2023/04/16 00:47:59;;;;;;;;;;;7.90;99.90;;;;;;4975593;28;20373;-86
2023/04/16 00:50:25;;;;;;;;;;;7.90;99.90;;;;;;4959211;28;19926;-86
2023/04/16 00:52:52;;;;;;;;;;;8.00;99.90;;;;;;4974107;28;21344;-87
2023/04/16 00:55:18;;;;;;;;;;;8.60;99.90;;;;;;4974992;28;19930;-86
2023/04/16 00:57:44;;;;;;;;;;;8.00;99.90;;;;;;4976144;28;19926;-87
2023/04/16 01:00:10;;;;;;;;;;;8.00;99.90;;;;;;4975177;28;19930;-86
2023/04/16 01:02:36;;;;;;;;;;;7.90;99.90;;;;;;4959915;28;19933;-86
2023/04/16 01:05:02;;;;;;;;;;;7.90;99.90;;;;;;4975383;28;19926;-86
2023/04/16 01:07:28;;;;;;;;;;;7.90;99.90;;;;;;4975036;28;19933;-86
2023/04/16 01:09:54;;;;;;;;;;;7.80;99.90;;;;;;4974237;28;19926;-86
2023/04/16 01:12:19;;;;;;;;;;;7.80;99.90;;;;;;4974978;28;19962;-86
2023/04/16 01:14:45;;;;;;;;;;;7.80;99.90;;;;;;4959262;28;19932;-86
2023/04/16 01:17:11;;;;;;;;;;;7.80;99.90;;;;;;4974559;28;19930;-86
2023/04/16 01:19:37;;;;;;;;;;;7.80;99.90;;;;;;4975629;28;19926;-86
2023/04/16 01:22:03;;;;;;;;;;;7.80;99.90;;;;;;4974772;28;19926;-85
2023/04/16 01:24:28;;;;;;;;;;;7.70;99.90;;;;;;4974461;28;19932;-86
2023/04/16 01:26:56;;;;;;;;;;;7.70;99.90;;;;;;4974669;28;19926;-87
2023/04/16 01:29:21;;;;;;;;;;;7.70;99.90;;;;;;4974399;28;19926;-86
2023/04/16 01:31:47;;;;;;;;;;;7.70;99.90;;;;;;4975458;28;19926;-86
2023/04/16 01:34:12;;;;;;;;;;;7.70;99.90;;;;;;4974671;28;19926;-86
2023/04/16 01:36:38;;;;;;;;;;;7.80;99.90;;;;;;4974587;28;19926;-86
2023/04/16 01:39:04;;;;;;;;;;;7.70;99.90;;;;;;4974474;28;20021;-85
2023/04/16 01:41:30;;;;;;;;;;;7.70;99.90;;;;;;4974515;28;20389;-86
2023/04/16 01:43:55;;;;;;;;;;;7.70;99.90;;;;;;4974501;28;19997;-85
2023/04/16 01:46:23;;;;;;;;;;;7.70;99.90;;;;;;4974408;28;19926;-85
2023/04/16 01:48:49;;;;;;;;;;;7.70;99.90;;;;;;4974144;28;19926;-86
2023/04/16 01:51:15;;;;;;;;;;;7.80;99.90;;;;;;4958506;28;19984;-86
2023/04/16 01:53:40;;;;;;;;;;;7.80;99.90;;;;;;4974207;28;19949;-86
2023/04/16 01:56:06;;;;;;;;;;;7.70;99.90;;;;;;4974251;28;20259;-86
2023/04/16 01:58:32;;;;;;;;;;;7.70;99.90;;;;;;4973756;28;19978;-86
2023/04/16 02:00:58;;;;;;;;;;;7.70;99.90;;;;;;4957878;28;20386;-86
2023/04/16 02:03:24;;;;;;;;;;;7.70;99.90;;;;;;4958110;28;19926;-86
2023/04/16 02:05:50;;;;;;;;;;;7.70;99.90;;;;;;4958497;28;19981;-85
2023/04/16 02:08:16;;;;;;;;;;;7.70;99.90;;;;;;4974239;28;19973;-85
2023/04/16 02:10:41;;;;;;;;;;;7.70;99.90;;;;;;4957627;28;20370;-85
2023/04/16 02:13:07;;;;;;;;;;;7.70;99.90;;;;;;4974042;28;20017;-86
2023/04/16 02:15:32;;;;;;;;;;;7.80;99.90;;;;;;4974145;28;19927;-86
2023/04/16 02:17:58;;;;;;;;;;;7.80;99.90;;;;;;4974119;28;19977;-87
2023/04/16 02:20:23;;;;;;;;;;;7.70;99.90;;;;;;4974052;28;19926;-86
2023/04/16 02:22:49;;;;;;;;;;;7.80;99.90;;;;;;4974228;28;19930;-86
2023/04/16 02:25:15;;;;;;;;;;;7.80;99.90;;;;;;4974299;28;19930;-86
2023/04/16 02:27:40;;;;;;;;;;;7.80;99.90;;;;;;4958814;28;19926;-86
2023/04/16 02:30:06;;;;;;;;;;;7.80;99.90;;;;;;4974565;28;20351;-86
2023/04/16 02:32:32;;;;;;;;;;;7.80;99.90;;;;;;4974017;28;19933;-86
2023/04/16 02:34:57;;;;;;;;;;;7.80;99.90;;;;;;4957905;28;19933;-85
2023/04/16 02:37:24;;;;;;;;;;;7.80;99.90;;;;;;4974269;28;19926;-86
2023/04/16 02:39:50;;;;;;;;;;;7.80;99.90;;;;;;4974116;28;19930;-85
2023/04/16 02:42:15;;;;;;;;;;;7.80;99.90;;;;;;4973950;28;19926;-86
2023/04/16 02:44:41;;;;;;;;;;;7.80;99.90;;;;;;4973590;28;20103;-86
2023/04/16 02:47:07;;;;;;;;;;;7.80;99.90;;;;;;4974700;28;19926;-86
2023/04/16 02:49:32;;;;;;;;;;;7.90;99.90;;;;;;4957464;28;19984;-85
2023/04/16 02:51:58;;;;;;;;;;;7.80;99.90;;;;;;4957726;28;20014;-87
2023/04/16 02:54:23;;;;;;;;;;;7.80;99.90;;;;;;4973503;28;19927;-87
2023/04/16 02:56:49;;;;;;;;;;;7.80;99.90;;;;;;4973341;28;19957;-86
2023/04/16 02:59:15;;;;;;;;;;;7.70;99.90;;;;;;4974584;28;19933;-86
2023/04/16 03:01:40;;;;;;;;;;;7.80;99.90;;;;;;4957637;28;19926;-86
2023/04/16 03:04:06;;;;;;;;;;;7.80;99.90;;;;;;4958513;28;19962;-87
2023/04/16 03:06:31;;;;;;;;;;;7.80;99.90;;;;;;4958395;28;20374;-85
2023/04/16 03:08:57;;;;;;;;;;;7.80;99.90;;;;;;4974403;28;19926;-86
2023/04/16 03:11:23;;;;;;;;;;;7.70;99.90;;;;;;4961377;28;20013;-86
2023/04/16 03:13:48;;;;;;;;;;;7.70;99.90;;;;;;4977120;28;19926;-85
2023/04/16 03:16:14;;;;;;;;;;;7.70;99.90;;;;;;4976901;28;19933;-85
2023/04/16 03:18:39;;;;;;;;;;;7.70;99.90;;;;;;4976685;28;19937;-86
2023/04/16 03:21:05;;;;;;;;;;;7.80;99.90;;;;;;4976802;28;20016;-86
2023/04/16 03:23:31;;;;;;;;;;;7.70;99.90;;;;;;4976877;28;19926;-86
2023/04/16 03:25:56;;;;;;;;;;;7.80;99.90;;;;;;4976697;28;19926;-87
2023/04/16 03:28:22;;;;;;;;;;;7.70;99.90;;;;;;4977592;28;19930;-86
2023/04/16 03:30:51;;;;;;;;;;;7.70;99.90;;;;;;4976871;28;19932;-87
2023/04/16 03:33:17;;;;;;;;;;;7.70;99.90;;;;;;4976495;28;19926;-86
2023/04/16 03:35:43;;;;;;;;;;;7.70;99.90;;;;;;4976759;28;19932;-86
2023/04/16 03:38:08;;;;;;;;;;;7.70;99.90;;;;;;4960812;28;19926;-86
2023/04/16 03:40:34;;;;;;;;;;;7.70;99.90;;;;;;4960783;28;19981;-86
2023/04/16 03:42:59;;;;;;;;;;;7.70;99.90;;;;;;4976204;28;19930;-88
2023/04/16 03:45:25;;;;;;;;;;;7.70;99.90;;;;;;4960440;28;19926;-86
2023/04/16 03:47:51;;;;;;;;;;;7.60;99.90;;;;;;4976506;28;19926;-86
2023/04/16 03:50:18;;;;;;;;;;;7.60;99.90;;;;;;4976322;28;19933;-86
2023/04/16 03:52:45;;;;;;;;;;;7.60;99.90;;;;;;4960242;28;19926;-87
2023/04/16 03:55:11;;;;;;;;;;;7.60;99.90;;;;;;4976588;28;19925;-86
2023/04/16 03:57:37;;;;;;;;;;;7.60;99.90;;;;;;4976383;28;19930;-86
2023/04/16 04:00:03;;;;;;;;;;;7.70;99.90;;;;;;4976324;28;19933;-86
2023/04/16 04:02:28;;;;;;;;;;;7.60;99.90;;;;;;4960409;28;19930;-86
2023/04/16 04:04:54;;;;;;;;;;;7.60;99.90;;;;;;4976460;28;20377;-87
2023/04/16 04:07:20;;;;;;;;;;;7.60;99.90;;;;;;4976123;28;19929;-86
2023/04/16 04:09:45;;;;;;;;;;;7.60;99.90;;;;;;4975690;28;19984;-86
2023/04/16 04:12:12;;;;;;;;;;;7.60;99.90;;;;;;4960041;28;19933;-87
2023/04/16 04:14:38;;;;;;;;;;;7.60;99.90;;;;;;4975933;28;19926;-86
2023/04/16 04:17:04;;;;;;;;;;;7.60;99.90;;;;;;4975865;28;19926;-85
2023/04/16 04:19:30;;;;;;;;;;;7.60;99.90;;;;;;4975953;28;19937;-85
2023/04/16 04:21:56;;;;;;;;;;;7.60;99.90;;;;;;4959581;28;19933;-86
2023/04/16 04:24:21;;;;;;;;;;;7.50;99.90;;;;;;4959359;28;20022;-86
2023/04/16 04:26:47;;;;;;;;;;;7.50;99.90;;;;;;4976695;28;19927;-86
2023/04/16 04:29:12;;;;;;;;;;;8.10;99.90;;;;;;4960224;28;20401;-85
2023/04/16 04:31:38;;;;;;;;;;;7.50;99.90;;;;;;4960171;28;19977;-86
2023/04/16 04:34:03;;;;;;;;;;;7.50;99.90;;;;;;4975345;28;19930;-86
2023/04/16 04:36:29;;;;;;;;;;;7.50;99.90;;;;;;4976341;28;19930;-86
2023/04/16 04:38:55;;;;;;;;;;;7.50;99.90;;;;;;4975325;28;20048;-86
2023/04/16 04:41:21;;;;;;;;;;;7.50;99.90;;;;;;4975437;28;20282;-85
2023/04/16 04:43:46;;;;;;;;;;;7.40;99.90;;;;;;4975479;28;19985;-86
2023/04/16 04:46:12;;;;;;;;;;;7.50;99.90;;;;;;4960265;28;19933;-86
2023/04/16 04:48:37;;;;;;;;;;;7.40;99.90;;;;;;4975504;28;19926;-86
2023/04/16 04:51:03;;;;;;;;;;;7.40;99.90;;;;;;4975370;28;19926;-86
2023/04/16 04:53:29;;;;;;;;;;;7.40;99.90;;;;;;4975163;28;20017;-87
2023/04/16 04:55:54;;;;;;;;;;;7.40;99.90;;;;;;4959028;28;19926;-86
2023/04/16 04:58:20;;;;;;;;;;;7.40;99.90;;;;;;4958997;28;19933;-85
2023/04/16 05:00:46;;;;;;;;;;;7.40;99.90;;;;;;4958989;28;19926;-86
2023/04/16 05:03:11;;;;;;;;;;;7.40;99.90;;;;;;4975024;28;19926;-86
2023/04/16 05:05:38;;;;;;;;;;;7.40;99.90;;;;;;4975108;28;19926;-85
2023/04/16 05:08:04;;;;;;;;;;;7.40;99.90;;;;;;4975180;28;19926;-86
2023/04/16 05:10:29;;;;;;;;;;;7.40;99.90;;;;;;4959282;28;20406;-86
2023/04/16 05:12:55;;;;;;;;;;;7.50;99.90;;;;;;4959542;28;19974;-88
2023/04/16 05:15:20;;;;;;;;;;;7.50;99.90;;;;;;4959435;28;19926;-86
2023/04/16 05:17:46;;;;;;;;;;;7.40;99.90;;;;;;4975729;28;19926;-86
2023/04/16 05:20:11;;;;;;;;;;;7.50;99.90;;;;;;4975408;28;20342;-85
2023/04/16 05:22:37;;;;;;;;;;;7.50;99.90;;;;;;4974998;28;19926;-86
2023/04/16 05:25:03;;;;;;;;;;;7.50;99.90;;;;;;4958408;28;19981;-86
2023/04/16 05:27:28;;;;;;;;;;;7.50;99.90;;;;;;4975151;28;19926;-86
2023/04/16 05:29:54;;;;;;;;;;;7.50;99.90;;;;;;4974289;28;19981;-85
2023/04/16 05:32:20;;;;;;;;;;;7.50;99.90;;;;;;4957743;28;19973;-86
2023/04/16 05:34:45;;;;;;;;;;;7.50;99.90;;;;;;4958602;28;20408;-86
2023/04/16 05:37:11;;;;;;;;;;;7.50;99.90;;;;;;4958401;28;19927;-86
2023/04/16 05:39:36;;;;;;;;;;;7.50;99.90;;;;;;4974620;28;20322;-86
2023/04/16 05:42:02;;;;;;;;;;;7.50;99.90;;;;;;4958346;28;19926;-86
2023/04/16 05:44:28;;;;;;;;;;;7.50;99.90;;;;;;4974383;28;19926;-86
2023/04/16 05:46:53;;;;;;;;;;;7.50;99.90;;;;;;4974427;28;19954;-86
2023/04/16 05:49:19;;;;;;;;;;;7.50;99.90;;;;;;4974228;28;20432;-85
2023/04/16 05:51:44;;;;;;;;;;;7.50;99.90;;;;;;4974403;28;19926;-86
2023/04/16 05:54:10;;;;;;;;;;;7.50;99.90;;;;;;4974183;28;19926;-87
2023/04/16 05:56:35;;;;;;;;;;;7.50;99.90;;;;;;4973921;28;19926;-85
2023/04/16 05:59:01;;;;;;;;;;;7.60;99.90;;;;;;4974258;28;20020;-86
2023/04/16 06:01:27;;;;;;;;;;;7.60;99.90;;;;;;4958212;28;19926;-85
2023/04/16 06:03:52;;;;;;;;;;;7.60;99.90;;;;;;4974281;28;19977;-85
2023/04/16 06:06:18;;;;;;;;;;;7.60;99.90;;;;;;4958514;28;20346;-85
2023/04/16 06:08:43;;;;;;;;;;;7.60;99.90;;;;;;4974219;28;19933;-85
2023/04/16 06:11:09;;;;;;;;;;;7.60;99.90;;;;;;4958105;28;20314;-86
2023/04/16 06:13:35;;;;;;;;;;;7.60;99.90;;;;;;4974451;28;20016;-86
2023/04/16 06:16:01;;;;;;;;;;;7.70;99.90;;;;;;4974118;28;19933;-86
2023/04/16 06:18:26;;;;;;;;;;;7.70;99.90;;;;;;4958394;28;19926;-86
2023/04/16 06:20:52;;;;;;;;;;;7.70;99.90;;;;;;4974052;28;20278;-86
2023/04/16 06:23:18;;;;;;;;;;;7.80;99.90;;;;;;4957890;28;19933;-86
2023/04/16 06:25:43;;;;;;;;;;;7.80;99.90;;;;;;4974084;28;20009;-86
2023/04/16 06:28:09;;;;;;;;;;;7.80;99.90;;;;;;4974228;28;19961;-86
2023/04/16 06:30:35;;;;;;;;;;;7.80;99.90;;;;;;4974268;28;19926;-86
2023/04/16 06:33:01;;;;;;;;;;;7.90;99.90;;;;;;4974055;28;19927;-85
2023/04/16 06:35:26;;;;;;;;;;;7.90;99.90;;;;;;4957944;28;19926;-84
2023/04/16 06:37:52;;;;;;;;;;;7.90;99.90;;;;;;4973904;28;19926;-85
2023/04/16 06:40:17;;;;;;;;;;;7.90;99.90;;;;;;4973600;28;20302;-87
2023/04/16 06:42:43;;;;;;;;;;;8.00;99.90;;;;;;4973964;28;19977;-86
2023/04/16 06:45:09;;;;;;;;;;;8.10;99.90;;;;;;4960778;28;20397;-88
2023/04/16 06:47:34;;;;;;;;;;;8.10;99.90;;;;;;4978591;28;19933;-85
2023/04/16 06:50:00;;;;;;;;;;;8.20;99.90;;;;;;4977994;28;20002;-87
2023/04/16 06:52:26;;;;;;;;;;;8.30;99.90;;;;;;4978332;28;20251;-88
2023/04/16 06:54:51;;;;;;;;;;;8.40;99.90;;;;;;4977179;28;19926;-85
2023/04/16 06:57:17;;;;;;;;;;;8.40;99.90;;;;;;4978365;28;20339;-87
2023/04/16 06:59:43;;;;;;;;;;;8.40;99.90;;;;;;4977411;28;20378;-87
2023/04/16 07:02:09;;;;;;;;;;;8.50;99.90;;;;;;4978317;28;19989;-86
2023/04/16 07:04:34;;;;;;;;;;;8.50;99.90;;;;;;4977311;28;19980;-86
2023/04/16 07:07:00;;;;;;;;;;;8.60;99.90;;;;;;4977589;28;19966;-88
2023/04/16 07:09:26;;;;;;;;;;;8.60;99.90;;;;;;4976672;28;20390;-86
2023/04/16 07:11:52;;;;;;;;;;;8.70;99.90;;;;;;4961963;28;19941;-87
2023/04/16 07:14:17;;;;;;;;;;;8.70;99.90;;;;;;4961390;28;19992;-87
2023/04/16 07:16:43;;;;;;;;;;;8.80;99.90;;;;;;4961183;28;19931;-87
2023/04/16 07:19:09;;;;;;;;;;;8.80;99.90;;;;;;4977326;28;20068;-87
2023/04/16 07:21:35;;;;;;;;;;;8.80;99.90;;;;;;4961141;28;19926;-87
2023/04/16 07:24:01;;;;;;;;;;;8.90;99.90;;;;;;4960907;28;19985;-86
2023/04/16 07:26:26;;;;;;;;;;;9.00;99.90;;;;;;4976915;28;19926;-87
2023/04/16 07:28:52;;;;;;;;;;;9.00;99.90;;;;;;4976783;28;19953;-87
2023/04/16 07:31:18;;;;;;;;;;;8.90;99.90;;;;;;4976890;28;20252;-86
2023/04/16 07:33:43;;;;;;;;;;;8.90;99.90;;;;;;4960733;28;19926;-86
2023/04/16 07:36:09;;;;;;;;;;;9.00;99.90;;;;;;4976827;28;19985;-86
2023/04/16 07:38:35;;;;;;;;;;;8.90;99.90;;;;;;4961342;28;19933;-85
2023/04/16 07:41:01;;;;;;;;;;;8.80;99.90;;;;;;4960572;28;20385;-86
2023/04/16 07:43:26;;;;;;;;;;;8.90;99.90;;;;;;4960469;28;19926;-88
2023/04/16 07:45:52;;;;;;;;;;;8.90;99.90;;;;;;4976641;28;19926;-86
2023/04/16 07:48:17;;;;;;;;;;;8.80;99.90;;;;;;4976462;28;19981;-85
2023/04/16 07:50:43;;;;;;;;;;;8.80;99.90;;;;;;4960651;28;19946;-86
2023/04/16 07:53:09;;;;;;;;;;;8.80;99.90;;;;;;4960200;28;20256;-86
2023/04/16 07:55:34;;;;;;;;;;;8.80;99.90;;;;;;4975287;28;19934;-86
2023/04/16 07:58:01;;;;;;;;;;;8.80;99.90;;;;;;4976638;28;19933;-87
2023/04/16 08:00:27;;;;;;;;;;;8.80;99.90;;;;;;4976419;28;19933;-87
2023/04/16 08:02:53;;;;;;;;;;;8.80;99.90;;;;;;4960302;28;19935;-86
2023/04/16 08:05:19;;;;;;;;;;;8.90;99.90;;;;;;4977129;28;19926;-87
2023/04/16 08:07:44;;;;;;;;;;;8.90;99.90;;;;;;4960939;28;19926;-87
2023/04/16 08:10:10;;;;;;;;;;;9.00;99.90;;;;;;4975890;28;20360;-86
2023/04/16 08:12:36;;;;;;;;;;;9.00;99.90;;;;;;4960082;28;19926;-85
2023/04/16 08:15:01;;;;;;;;;;;9.10;99.90;;;;;;4976819;28;19933;-87
2023/04/16 08:17:28;;;;;;;;;;;9.20;99.90;;;;;;4976848;28;19998;-85
2023/04/16 08:19:53;;;;;;;;;;;9.30;99.90;;;;;;4960115;28;19926;-86
2023/04/16 08:22:19;;;;;;;;;;;9.30;99.90;;;;;;4959462;28;19930;-87
2023/04/16 08:24:45;;;;;;;;;;;9.40;99.90;;;;;;4975812;28;19926;-85
2023/04/16 08:27:13;;;;;;;;;;;9.50;99.90;;;;;;4976099;28;19926;-86
2023/04/16 08:29:39;;;;;;;;;;;9.60;99.90;;;;;;4975543;28;20370;-87
2023/04/16 08:32:05;;;;;;;;;;;9.70;99.90;;;;;;4959717;28;19953;-85
2023/04/16 08:34:31;;;;;;;;;;;9.90;99.90;;;;;;4975862;28;19926;-87
2023/04/16 08:36:56;;;;;;;;;;;9.90;99.90;;;;;;4959473;28;19930;-87
2023/04/16 08:39:22;;;;;;;;;;;10.00;99.90;;;;;;4959349;28;20045;-88
2023/04/16 08:41:48;;;;;;;;;;;10.20;99.90;;;;;;4975842;28;19933;-87
2023/04/16 08:44:18;;;;;;;;;;;10.30;99.90;;;;;;4976313;28;19933;-87
2023/04/16 08:46:47;;;;;;;;;;;10.30;99.90;;;;;;4975783;28;19926;-88
2023/04/16 08:49:16;;;;;;;;;;;10.40;99.90;;;;;;4975165;28;19926;-88
2023/04/16 08:51:44;;;;;;;;;;;10.60;99.90;;;;;;4976156;28;20020;-88
2023/04/16 08:54:15;;;;;;;;;;;10.70;99.90;;;;;;4974909;28;19983;-88
2023/04/16 08:56:40;;;;;;;;;;;10.90;99.90;;;;;;4975094;28;19934;-87
2023/04/16 08:59:06;;;;;;;;;;;13.10;99.90;;;;;;4975137;28;19930;-88
2023/04/16 09:01:32;;;;;;;;;;;11.10;99.90;;;;;;4975674;28;19941;-88
2023/04/16 09:03:57;;;;;;;;;;;11.10;99.90;;;;;;4975357;28;20024;-87
2023/04/16 09:06:23;;;;;;;;;;;11.30;99.90;;;;;;4974959;28;19926;-89
2023/04/16 09:08:49;;;;;;;;;;;11.40;99.90;;;;;;4959460;28;19939;-87
2023/04/16 09:11:18;;;;;;;;;;;11.40;99.90;;;;;;4959195;28;19965;-88
2023/04/16 09:13:44;;;;;;;;;;;11.40;99.90;;;;;;4959124;28;19933;-87
2023/04/16 09:16:11;;;;;;;;;;;11.40;99.90;;;;;;4959641;28;19973;-88
2023/04/16 09:18:37;;;;;;;;;;;11.50;99.90;;;;;;4974400;28;19926;-87
2023/04/16 09:21:03;;;;;;;;;;;11.60;99.90;;;;;;4974379;28;20386;-87
2023/04/16 09:23:29;;;;;;;;;;;11.70;99.90;;;;;;4974694;28;19933;-86
2023/04/16 09:25:55;;;;;;;;;;;11.80;99.90;;;;;;4975605;28;19926;-87
2023/04/16 09:28:41;;;;;;;;;;;10.40;99.90;;;;;;4974606;28;19985;-87
2023/04/16 09:31:11;;;;;;;;;;;11.90;99.90;;;;;;4958625;28;20281;-87
2023/04/16 09:33:37;;;;;;;;;;;10.50;99.90;;;;;;4974974;28;19934;-87
2023/04/16 09:36:03;;;;;;;;;;;12.10;99.90;;;;;;4974663;28;20413;-87
2023/04/16 09:38:45;;;;;;;;;;;12.00;99.90;;;;;;4974070;28;19976;-86
2023/04/16 09:41:11;;;;;;;;;;;12.10;99.90;;;;;;4958321;28;19977;-85
2023/04/16 09:43:37;;;;;;;;;;;12.20;99.90;;;;;;4958333;28;19933;-87
2023/04/16 09:46:03;;;;;;;;;;;12.30;99.90;;;;;;4958699;28;19926;-85
2023/04/16 09:48:32;;;;;;;;;;;12.50;99.90;;;;;;4958467;28;19926;-87
2023/04/16 09:50:58;;;;;;;;;;;12.60;99.90;;;;;;4974261;28;20425;-87
2023/04/16 09:53:25;;;;;;;;;;;12.60;99.90;;;;;;4958459;28;19926;-86
2023/04/16 09:55:51;;;;;;;;;;;12.60;99.90;;;;;;4974189;28;19930;-86
2023/04/16 09:58:18;;;;;;;;;;;12.60;99.90;;;;;;4974280;28;19965;-86
2023/04/16 10:00:43;;;;;;;;;;;12.60;99.90;;;;;;4958175;28;19977;-86
2023/04/16 10:03:09;;;;;;;;;;;12.70;99.90;;;;;;4973993;28;19930;-86
2023/04/16 10:05:35;;;;;;;;;;;12.80;99.90;;;;;;4975087;28;19989;-86
2023/04/16 10:08:01;;;;;;;;;;;12.90;99.90;;;;;;4957310;28;19992;-86
2023/04/16 10:10:27;;;;;;;;;;;12.90;99.90;;;;;;4973913;28;20357;-87
2023/04/16 10:12:54;;;;;;;;;;;13.00;99.90;;;;;;4957982;28;19925;-86
2023/04/16 10:15:21;;;;;;;;;;;13.10;99.90;;;;;;4957858;28;19937;-87
2023/04/16 10:17:46;;;;;;;;;;;13.20;99.90;;;;;;4957415;28;19926;-88
2023/04/16 10:20:12;;;;;;;;;;;13.20;99.90;;;;;;4976375;28;19926;-87
2023/04/16 10:22:38;;;;;;;;;;;13.20;99.90;;;;;;4977874;28;19926;-87
2023/04/16 10:25:05;;;;;;;;;;;13.30;99.90;;;;;;4961588;28;19926;-88
2023/04/16 10:27:31;;;;;;;;;;;13.30;99.90;;;;;;4977662;28;19926;-87
2023/04/16 10:29:56;;;;;;;;;;;13.40;99.90;;;;;;4977290;28;19926;-86
2023/04/16 10:32:27;;;;;;;;;;;13.50;99.90;;;;;;4961799;28;19926;-86
2023/04/16 10:34:54;;;;;;;;;;;13.50;99.90;;;;;;4978043;28;19932;-85
2023/04/16 10:37:27;;;;;;;;;;;13.60;99.90;;;;;;4977661;28;19930;-86
2023/04/16 10:39:53;;;;;;;;;;;13.60;99.90;;;;;;4978053;28;20393;-85
2023/04/16 10:42:19;;;;;;;;;;;13.60;99.90;;;;;;4977868;28;19961;-85
2023/04/16 10:44:44;;;;;;;;;;;13.80;99.90;;;;;;4977918;28;19922;-86
2023/04/16 10:47:11;;;;;;;;;;;13.90;99.90;;;;;;4977813;28;19922;-86
2023/04/16 10:49:37;;;;;;;;;;;13.90;99.90;;;;;;4977430;28;19973;-85
2023/04/16 10:52:12;;;;;;;;;;;14.00;99.90;;;;;;4962404;28;19970;-85
2023/04/16 10:54:38;;;;;;;;;;;14.10;99.90;;;;;;4978230;28;19922;-86
2023/04/16 10:57:25;;;;;;;;;;;14.10;99.90;;;;;;4977390;28;20005;-85
2023/04/16 10:59:50;;;;;;;;;;;14.10;99.90;;;;;;4978163;28;19922;-85
2023/04/16 11:02:16;;;;;;;;;;;14.10;99.90;;;;;;4977195;28;19977;-85
2023/04/16 11:04:46;;;;;;;;;;;14.10;99.90;;;;;;4977454;28;19922;-86
2023/04/16 11:07:15;;;;;;;;;;;14.10;99.90;;;;;;4977509;28;19922;-86
2023/04/16 11:09:46;;;;;;;;;;;14.00;99.90;;;;;;4976972;28;19922;-86
2023/04/16 11:12:13;;;;;;;;;;;14.00;99.90;;;;;;4978158;28;19928;-85
2023/04/16 11:14:40;;;;;;;;;;;14.00;99.90;;;;;;4976964;28;19922;-87
2023/04/16 11:17:05;;;;;;;;;;;13.80;99.90;;;;;;4961111;28;20251;-86
2023/04/16 11:19:31;;;;;;;;;;;13.70;99.90;;;;;;4977224;28;19930;-87
2023/04/16 11:21:57;;;;;;;;;;;13.70;99.90;;;;;;4977141;28;19922;-86
2023/04/16 11:24:22;;;;;;;;;;;13.50;99.90;;;;;;4976659;28;19922;-87
2023/04/16 11:26:51;;;;;;;;;;;11.50;99.90;;;;;;4977824;28;19922;-86
2023/04/16 11:29:17;;;;;;;;;;;13.30;99.90;;;;;;4977592;28;20012;-86
2023/04/16 11:31:48;;;;;;;;;;;13.30;99.90;;;;;;4976282;28;19973;-86
2023/04/16 11:34:15;;;;;;;;;;;13.40;99.90;;;;;;4961406;28;20259;-86
2023/04/16 11:36:42;;;;;;;;;;;13.40;99.90;;;;;;4960495;28;19929;-86
2023/04/16 11:39:07;;;;;;;;;;;13.40;99.90;;;;;;4976233;28;19926;-86
2023/04/16 11:41:33;;;;;;;;;;;13.60;99.90;;;;;;4977617;28;20029;-86
2023/04/16 11:43:58;;;;;;;;;;;13.70;99.90;;;;;;4977107;28;19922;-87
2023/04/16 11:46:36;;;;;;;;;;;13.60;99.90;;;;;;4976697;28;20326;-87
2023/04/16 11:49:02;;;;;;;;;;;13.70;99.90;;;;;;4960474;28;19973;-86
2023/04/16 11:51:28;;;;;;;;;;;13.70;99.90;;;;;;4976486;28;19922;-86
2023/04/16 11:53:54;;;;;;;;;;;13.80;99.90;;;;;;4959990;28;19929;-86
2023/04/16 11:56:27;;;;;;;;;;;13.80;99.90;;;;;;4960597;28;19933;-87
2023/04/16 11:59:09;;;;;;;;;;;13.80;99.90;;;;;;4976689;28;20247;-87
2023/04/16 12:01:44;;;;;;;;;;;13.90;99.90;;;;;;4976136;28;19945;-87
2023/04/16 12:04:12;;;;;;;;;;;14.00;99.90;;;;;;4977256;28;20018;-86
2023/04/16 12:06:37;;;;;;;;;;;13.90;99.90;;;;;;4976174;28;20374;-86
2023/04/16 12:09:25;;;;;;;;;;;14.10;99.90;;;;;;4975618;28;19980;-87
2023/04/16 12:11:51;;;;;;;;;;;14.00;99.90;;;;;;4960152;28;19990;-86
2023/04/16 12:14:17;;;;;;;;;;;14.10;99.90;;;;;;4959941;28;19926;-86
2023/04/16 12:16:43;;;;;;;;;;;14.20;99.90;;;;;;4976172;28;19926;-85
2023/04/16 12:19:10;;;;;;;;;;;14.30;99.90;;;;;;4992505;28;20219;-86
2023/04/16 12:21:45;;;;;;;;;;;14.30;99.90;;;;;;4976087;28;19926;-86
2023/04/16 12:24:12;;;;;;;;;;;14.20;99.90;;;;;;4959740;28;20366;-86
2023/04/16 12:26:41;;;;;;;;;;;13.90;99.90;;;;;;4959981;28;19926;-86
2023/04/16 12:29:20;;;;;;;;;;;14.10;99.90;;;;;;4975732;28;19981;-86
2023/04/16 12:31:47;;;;;;;;;;;14.30;99.90;;;;;;4976206;28;19926;-86
2023/04/16 12:34:14;;;;;;;;;;;14.20;99.90;;;;;;4959738;28;19927;-86
2023/04/16 12:36:40;;;;;;;;;;;14.20;99.90;;;;;;4959793;28;20028;-86
2023/04/16 12:39:06;;;;;;;;;;;14.30;99.90;;;;;;4959557;28;19985;-86
2023/04/16 12:41:31;;;;;;;;;;;14.30;99.90;;;;;;4976268;28;20339;-86
2023/04/16 12:44:08;;;;;;;;;;;14.30;99.90;;;;;;4975778;28;19981;-86
2023/04/16 12:46:34;;;;;;;;;;;14.40;99.90;;;;;;4976467;28;19942;-86
2023/04/16 12:49:00;;;;;;;;;;;14.40;99.90;;;;;;4975705;28;19934;-86
2023/04/16 12:51:25;;;;;;;;;;;14.30;99.90;;;;;;4975522;28;20248;-86
2023/04/16 12:53:51;;;;;;;;;;;14.40;99.90;;;;;;4975464;28;20020;-86
2023/04/16 12:56:17;;;;;;;;;;;14.50;99.90;;;;;;4958874;28;20039;-86
2023/04/16 12:58:42;;;;;;;;;;;14.70;99.90;;;;;;4991580;28;20386;-86
2023/04/16 13:01:13;;;;;;;;;;;14.70;99.90;;;;;;4975730;28;20359;-87
2023/04/16 13:03:41;;;;;;;;;;;14.70;99.90;;;;;;4976193;28;19933;-86
2023/04/16 13:06:07;;;;;;;;;;;14.80;99.90;;;;;;4960049;28;19980;-86
2023/04/16 13:08:32;;;;;;;;;;;14.80;99.90;;;;;;4974943;28;19926;-86
2023/04/16 13:10:58;;;;;;;;;;;14.80;99.90;;;;;;4974967;28;19926;-86
2023/04/16 13:13:24;;;;;;;;;;;14.90;99.90;;;;;;4974959;28;19949;-87
2023/04/16 13:15:50;;;;;;;;;;;15.00;99.90;;;;;;4974929;28;20401;-86
2023/04/16 13:18:15;;;;;;;;;;;14.90;99.90;;;;;;4974917;28;20024;-87
2023/04/16 13:20:41;;;;;;;;;;;14.90;99.90;;;;;;4975086;28;19932;-87
2023/04/16 13:23:06;;;;;;;;;;;14.80;99.90;;;;;;4958878;28;19948;-86
2023/04/16 13:25:32;;;;;;;;;;;14.80;99.90;;;;;;4975067;28;19933;-87
2023/04/16 13:27:57;;;;;;;;;;;15.70;99.90;;;;;;4974690;28;19926;-86
2023/04/16 13:30:24;;;;;;;;;;;14.70;99.90;;;;;;4974667;28;19926;-86
2023/04/16 13:32:49;;;;;;;;;;;14.60;99.90;;;;;;4974897;28;19930;-87
2023/04/16 13:35:15;;;;;;;;;;;14.60;99.90;;;;;;4974858;28;19935;-86
2023/04/16 13:37:41;;;;;;;;;;;14.50;99.90;;;;;;4975129;28;20339;-87
2023/04/16 13:40:06;;;;;;;;;;;14.40;99.90;;;;;;4958215;28;20263;-85
2023/04/16 13:42:32;;;;;;;;;;;14.40;99.90;;;;;;4974781;28;19930;-86
2023/04/16 13:44:58;;;;;;;;;;;14.30;99.90;;;;;;4958501;28;19926;-86
2023/04/16 13:47:23;;;;;;;;;;;14.20;99.90;;;;;;4974355;28;19984;-86
2023/04/16 13:49:49;;;;;;;;;;;14.30;99.90;;;;;;4958207;28;19980;-87
2023/04/16 13:52:17;;;;;;;;;;;14.40;99.90;;;;;;4974926;28;19934;-87
2023/04/16 13:54:43;;;;;;;;;;;14.40;99.90;;;;;;4972877;28;19949;-87
2023/04/16 13:57:08;;;;;;;;;;;14.40;99.90;;;;;;4990368;28;20370;-87
2023/04/16 13:59:34;;;;;;;;;;;14.30;99.90;;;;;;4974394;28;19977;-87
2023/04/16 14:02:00;;;;;;;;;;;14.30;99.90;;;;;;4973818;28;19937;-86
2023/04/16 14:04:33;;;;;;;;;;;14.40;99.90;;;;;;4974213;28;19926;-87
2023/04/16 14:06:58;;;;;;;;;;;14.40;99.90;;;;;;4958286;28;20065;-87
2023/04/16 14:09:24;;;;;;;;;;;14.40;99.90;;;;;;4974755;28;20024;-87
2023/04/16 14:11:49;;;;;;;;;;;14.50;99.90;;;;;;4974326;28;19930;-87
2023/04/16 14:14:20;;;;;;;;;;;14.50;99.90;;;;;;4975009;28;20294;-86
2023/04/16 14:16:55;;;;;;;;;;;14.50;99.90;;;;;;4974286;28;20339;-87
2023/04/16 14:19:20;;;;;;;;;;;14.60;99.90;;;;;;4973808;28;20016;-86